Time;durP1;ratioP1;P1;durP2;ratioP2;P2;SDS_P1;SDS_P2;PMS_P1;PMS_P2;Temp;Humidity;BMP_temperature;BMP_pressure;BME280_temperature;BME280_humidity;BME280_pressure;Samples;Min_cycle;Max_cycle;Signal;HPM_P1;HPM_P2
2021/08/30 00:02:48;;;;;;;4.35;1.48;;;;;;;;;;5012436;28;20045;-65
2021/08/30 00:05:52;;;;;;;4.20;1.23;;;;;;;;;;5012362;28;20041;-65
2021/08/30 00:08:57;;;;;;;2.90;1.00;;;;;;;;;;5012212;28;20478;-65
2021/08/30 00:12:01;;;;;;;10.90;1.33;;;;;;;;;;5000388;28;20030;-65
2021/08/30 00:15:07;;;;;;;5.45;0.90;;;;;;;;;;5011925;28;20401;-65
2021/08/30 00:18:11;;;;;;;3.92;1.00;;;;;;;;;;5011978;28;20042;-65
2021/08/30 00:21:15;;;;;;;5.28;1.10;;;;;;;;;;5011641;28;20057;-65
2021/08/30 00:24:24;;;;;;;7.18;1.30;;;;;;;;;;5011784;28;20042;-65
2021/08/30 00:27:32;;;;;;;3.60;1.02;;;;;;;;;;5011689;28;20030;-66
2021/08/30 00:30:36;;;;;;;4.15;1.30;;;;;;;;;;5011521;28;20379;-65
2021/08/30 00:33:41;;;;;;;6.03;1.38;;;;;;;;;;5011693;28;20042;-65
2021/08/30 00:36:45;;;;;;;3.08;1.10;;;;;;;;;;5011678;28;20037;-65
2021/08/30 00:39:50;;;;;;;3.95;1.00;;;;;;;;;;5011354;28;20382;-65
2021/08/30 00:42:54;;;;;;;3.83;1.20;;;;;;;;;;5011422;28;20034;-65
2021/08/30 00:46:00;;;;;;;8.45;1.20;;;;;;;;;;5011570;28;20045;-65
2021/08/30 00:49:04;;;;;;;2.58;1.10;;;;;;;;;;5011302;28;20486;-65
2021/08/30 00:52:10;;;;;;;3.05;1.10;;;;;;;;;;5011443;28;20379;-65
2021/08/30 00:55:15;;;;;;;3.60;0.90;;;;;;;;;;5011512;28;20038;-65
2021/08/30 00:58:21;;;;;;;5.28;1.30;;;;;;;;;;5011312;28;20038;-65
2021/08/30 01:01:44;;;;;;;4.57;1.17;;;;;;;;;;5002178;28;20050;-65
2021/08/30 01:04:49;;;;;;;1.85;1.08;;;;;;;;;;4999093;28;20038;-65
2021/08/30 01:08:03;;;;;;;5.80;1.15;;;;;;;;;;5011266;28;20041;-65
2021/08/30 01:11:08;;;;;;;6.50;1.08;;;;;;;;;;5011246;28;20060;-65
2021/08/30 01:14:15;;;;;;;2.72;1.25;;;;;;;;;;5011131;28;20529;-65
2021/08/30 01:17:20;;;;;;;3.35;1.05;;;;;;;;;;4999061;28;20034;-65
2021/08/30 01:20:30;;;;;;;2.08;1.00;;;;;;;;;;5011084;28;20045;-65
2021/08/30 01:23:36;;;;;;;8.93;1.88;;;;;;;;;;5010996;28;20380;-65
2021/08/30 01:26:49;;;;;;;5.45;1.20;;;;;;;;;;5011053;28;20041;-65
2021/08/30 01:29:58;;;;;;;4.00;1.17;;;;;;;;;;5011150;28;20465;-65
2021/08/30 01:33:03;;;;;;;6.00;1.30;;;;;;;;;;5011075;28;20057;-65
2021/08/30 01:36:07;;;;;;;6.68;1.30;;;;;;;;;;5011027;28;20379;-65
2021/08/30 01:39:12;;;;;;;3.88;1.20;;;;;;;;;;5010869;28;20505;-65
2021/08/30 01:42:16;;;;;;;4.57;1.00;;;;;;;;;;5011048;28;20481;-65
2021/08/30 01:45:22;;;;;;;3.75;1.50;;;;;;;;;;5002950;28;20033;-66
2021/08/30 01:48:26;;;;;;;3.00;1.15;;;;;;;;;;5014886;28;20038;-65
2021/08/30 01:51:31;;;;;;;6.68;1.30;;;;;;;;;;5014793;28;20038;-65
2021/08/30 01:54:36;;;;;;;2.33;1.00;;;;;;;;;;5014586;28;20038;-65
2021/08/30 02:00:42;;;;;;;3.67;1.38;;;;;;;;;;5014713;28;20038;-65
2021/08/30 02:01:05;;;;;;;2.10;1.00;;;;;;;;;;5014649;28;20071;-65
2021/08/30 02:04:10;;;;;;;6.85;1.00;;;;;;;;;;5014452;28;20033;-65
2021/08/30 02:07:14;;;;;;;2.47;1.08;;;;;;;;;;5014439;28;20398;-65
2021/08/30 02:10:19;;;;;;;3.25;1.10;;;;;;;;;;5014231;28;20034;-65
2021/08/30 02:13:27;;;;;;;2.65;0.93;;;;;;;;;;5014478;28;20042;-65
2021/08/30 02:16:31;;;;;;;3.28;1.27;;;;;;;;;;5014261;28;20034;-65
2021/08/30 02:19:44;;;;;;;2.63;1.15;;;;;;;;;;5014289;28;20049;-65
2021/08/30 02:22:49;;;;;;;3.03;1.00;;;;;;;;;;5013724;28;20049;-65
2021/08/30 02:25:55;;;;;;;3.97;1.38;;;;;;;;;;5013924;28;20038;-65
2021/08/30 02:29:02;;;;;;;2.08;1.00;;;;;;;;;;5013937;28;20378;-65
2021/08/30 02:32:06;;;;;;;2.58;1.20;;;;;;;;;;5013991;28;20042;-65
2021/08/30 02:35:14;;;;;;;4.13;1.50;;;;;;;;;;5013887;28;20038;-65
2021/08/30 02:38:18;;;;;;;2.20;1.25;;;;;;;;;;5013869;28;20042;-65
2021/08/30 02:41:23;;;;;;;3.35;1.20;;;;;;;;;;5013751;28;20050;-65
2021/08/30 02:44:27;;;;;;;2.00;1.00;;;;;;;;;;5013747;28;20536;-65
2021/08/30 02:47:32;;;;;;;4.85;1.55;;;;;;;;;;5013648;28;20038;-65
2021/08/30 02:50:38;;;;;;;4.35;1.20;;;;;;;;;;5013573;28;20034;-65
2021/08/30 02:53:43;;;;;;;2.22;1.00;;;;;;;;;;5013535;28;20038;-65
2021/08/30 02:56:48;;;;;;;2.30;1.00;;;;;;;;;;5012662;28;20034;-65
2021/08/30 02:59:55;;;;;;;3.85;1.15;;;;;;;;;;5013490;28;20041;-65
2021/08/30 03:02:59;;;;;;;2.15;0.82;;;;;;;;;;5013171;28;20038;-65
2021/08/30 03:06:05;;;;;;;2.55;0.85;;;;;;;;;;5013284;28;20042;-65
2021/08/30 03:09:09;;;;;;;1.80;1.00;;;;;;;;;;5013278;28;20046;-65
2021/08/30 03:12:15;;;;;;;3.72;1.10;;;;;;;;;;5013055;28;20042;-65
2021/08/30 03:15:22;;;;;;;4.97;1.02;;;;;;;;;;5013130;28;20046;-64
2021/08/30 03:18:26;;;;;;;8.80;1.48;;;;;;;;;;5013056;28;20034;-64
2021/08/30 03:21:31;;;;;;;3.63;1.38;;;;;;;;;;5013112;28;20049;-64
2021/08/30 03:24:37;;;;;;;12.25;1.95;;;;;;;;;;5012747;28;20053;-65
2021/08/30 03:27:45;;;;;;;3.53;1.38;;;;;;;;;;5012787;28;20050;-65
2021/08/30 03:30:52;;;;;;;5.88;1.70;;;;;;;;;;5012739;28;20041;-65
2021/08/30 03:33:56;;;;;;;2.38;1.30;;;;;;;;;;5012407;28;20046;-64
2021/08/30 03:37:01;;;;;;;4.03;1.67;;;;;;;;;;5012804;28;20033;-65
2021/08/30 03:40:06;;;;;;;4.97;2.28;;;;;;;;;;5012307;28;20054;-64
2021/08/30 03:43:11;;;;;;;9.60;2.50;;;;;;;;;;5012287;28;20038;-64
2021/08/30 03:46:15;;;;;;;8.90;2.05;;;;;;;;;;5012401;28;20042;-64
2021/08/30 03:49:20;;;;;;;8.27;2.30;;;;;;;;;;5012753;28;20045;-65
2021/08/30 03:52:25;;;;;;;4.25;1.90;;;;;;;;;;5012399;28;20038;-64
2021/08/30 03:55:30;;;;;;;6.10;1.60;;;;;;;;;;5012665;28;20050;-65
2021/08/30 03:58:36;;;;;;;6.60;1.58;;;;;;;;;;5012341;28;20030;-65
2021/08/30 04:01:42;;;;;;;5.35;1.30;;;;;;;;;;5012404;28;20050;-65
2021/08/30 04:04:47;;;;;;;6.65;1.30;;;;;;;;;;5011927;28;20030;-65
2021/08/30 04:07:52;;;;;;;1.98;0.98;;;;;;;;;;5011918;28;20063;-65
2021/08/30 04:10:56;;;;;;;2.92;1.13;;;;;;;;;;5011804;28;20478;-65
2021/08/30 04:14:00;;;;;;;4.75;0.93;;;;;;;;;;5011867;28;20033;-65
2021/08/30 04:17:04;;;;;;;2.30;1.05;;;;;;;;;;5011885;28;20038;-65
2021/08/30 04:20:09;;;;;;;4.45;1.10;;;;;;;;;;5011915;28;20041;-65
2021/08/30 04:23:14;;;;;;;9.18;1.45;;;;;;;;;;5011882;28;20038;-65
2021/08/30 04:26:18;;;;;;;4.97;1.20;;;;;;;;;;5012048;28;20041;-65
2021/08/30 04:29:22;;;;;;;1.88;1.00;;;;;;;;;;5011714;28;20042;-66
2021/08/30 04:32:32;;;;;;;5.57;0.90;;;;;;;;;;5011873;28;20038;-66
2021/08/30 04:35:36;;;;;;;3.67;1.15;;;;;;;;;;5011678;28;20034;-65
2021/08/30 04:38:40;;;;;;;8.45;1.17;;;;;;;;;;5011906;28;20038;-65
2021/08/30 04:41:45;;;;;;;1.80;1.00;;;;;;;;;;5011621;28;20050;-65
2021/08/30 04:44:50;;;;;;;5.22;1.55;;;;;;;;;;5011673;28;20034;-65
2021/08/30 04:47:53;;;;;;;4.60;1.08;;;;;;;;;;5011557;28;20045;-65
2021/08/30 04:50:58;;;;;;;6.18;1.40;;;;;;;;;;5011525;28;20488;-66
2021/08/30 04:54:05;;;;;;;8.50;1.13;;;;;;;;;;5011768;28;20037;-65
2021/08/30 04:57:10;;;;;;;3.20;1.10;;;;;;;;;;5011678;28;20034;-65
2021/08/30 05:00:15;;;;;;;4.38;0.95;;;;;;;;;;5011314;28;20049;-66
2021/08/30 05:03:19;;;;;;;2.00;1.10;;;;;;;;;;5011576;28;20046;-65
2021/08/30 05:06:23;;;;;;;5.22;1.20;;;;;;;;;;5011430;28;20390;-66
2021/08/30 05:09:27;;;;;;;3.60;1.38;;;;;;;;;;5011271;28;20059;-66
2021/08/30 05:12:33;;;;;;;2.80;1.50;;;;;;;;;;5011248;28;20034;-66
2021/08/30 05:15:37;;;;;;;7.45;1.33;;;;;;;;;;5011238;28;20038;-66
2021/08/30 05:18:41;;;;;;;8.77;1.65;;;;;;;;;;5012529;28;20042;-66
2021/08/30 05:21:45;;;;;;;7.10;1.77;;;;;;;;;;5015233;28;20038;-66
2021/08/30 05:24:50;;;;;;;3.13;1.60;;;;;;;;;;5015074;28;20029;-66
2021/08/30 05:27:54;;;;;;;8.20;1.60;;;;;;;;;;5015120;28;20042;-66
2021/08/30 05:30:59;;;;;;;6.13;2.15;;;;;;;;;;5015104;28;20046;-66
2021/08/30 05:34:03;;;;;;;12.55;2.10;;;;;;;;;;5015061;28;20046;-66
2021/08/30 05:37:11;;;;;;;7.60;2.85;;;;;;;;;;5015076;28;20053;-66
2021/08/30 05:40:15;;;;;;;16.30;3.78;;;;;;;;;;5014641;28;20054;-66
2021/08/30 05:43:19;;;;;;;6.25;2.35;;;;;;;;;;5002930;28;20045;-66
2021/08/30 05:46:23;;;;;;;12.50;3.00;;;;;;;;;;5014853;28;20046;-66
2021/08/30 05:49:28;;;;;;;11.07;2.72;;;;;;;;;;5014793;28;20038;-66
2021/08/30 05:52:32;;;;;;;10.82;2.40;;;;;;;;;;5014958;28;20041;-66
2021/08/30 05:55:37;;;;;;;11.02;2.67;;;;;;;;;;5014699;28;20049;-66
2021/08/30 05:58:41;;;;;;;11.43;2.78;;;;;;;;;;5014747;28;20498;-67
2021/08/30 06:01:45;;;;;;;11.18;3.00;;;;;;;;;;5014142;28;20042;-66
2021/08/30 06:04:50;;;;;;;12.80;2.50;;;;;;;;;;5014407;28;20041;-66
2021/08/30 06:07:54;;;;;;;11.38;3.00;;;;;;;;;;5014279;28;20701;-66
2021/08/30 06:11:00;;;;;;;15.13;3.63;;;;;;;;;;5014258;28;20054;-65
2021/08/30 06:14:07;;;;;;;15.57;3.95;;;;;;;;;;5014135;28;20042;-66
2021/08/30 06:17:11;;;;;;;18.48;3.85;;;;;;;;;;5014081;28;20034;-65
2021/08/30 06:20:16;;;;;;;13.60;3.13;;;;;;;;;;5001770;28;20421;-67
2021/08/30 06:23:20;;;;;;;18.52;3.53;;;;;;;;;;5013953;28;20045;-66
2021/08/30 06:26:25;;;;;;;20.27;3.97;;;;;;;;;;5013822;28;20044;-66
2021/08/30 06:29:29;;;;;;;12.38;3.75;;;;;;;;;;5013388;28;20045;-66
2021/08/30 06:32:33;;;;;;;9.00;2.45;;;;;;;;;;5013706;28;20041;-66
2021/08/30 06:35:42;;;;;;;8.70;2.50;;;;;;;;;;5013887;28;20038;-64
2021/08/30 06:38:46;;;;;;;7.18;2.00;;;;;;;;;;5013777;28;20060;-64
2021/08/30 06:41:50;;;;;;;8.93;2.78;;;;;;;;;;5013685;28;20386;-64
2021/08/30 06:44:55;;;;;;;9.63;1.83;;;;;;;;;;5013502;28;20042;-64
2021/08/30 06:47:59;;;;;;;10.95;1.80;;;;;;;;;;5013002;28;20041;-64
2021/08/30 06:51:04;;;;;;;5.43;1.30;;;;;;;;;;5001678;28;20042;-64
2021/08/30 06:54:08;;;;;;;9.13;1.92;;;;;;;;;;5001418;28;20038;-64
2021/08/30 06:57:12;;;;;;;12.52;2.00;;;;;;;;;;5013467;28;20506;-64
2021/08/30 07:00:17;;;;;;;12.32;2.03;;;;;;;;;;5013297;28;20050;-64
2021/08/30 07:03:22;;;;;;;9.95;1.75;;;;;;;;;;5013345;28;20041;-64
2021/08/30 07:06:26;;;;;;;20.17;3.13;;;;;;;;;;5013232;28;20041;-64
2021/08/30 07:09:30;;;;;;;12.40;2.60;;;;;;;;;;5013669;28;20046;-64
2021/08/30 07:12:35;;;;;;;22.25;2.70;;;;;;;;;;5013197;28;20042;-64
2021/08/30 07:15:39;;;;;;;8.75;2.00;;;;;;;;;;5001243;28;20504;-64
2021/08/30 07:18:44;;;;;;;14.43;2.13;;;;;;;;;;5012997;28;20045;-65
2021/08/30 07:21:48;;;;;;;9.15;2.30;;;;;;;;;;5012800;28;20063;-64
2021/08/30 07:24:52;;;;;;;7.63;1.75;;;;;;;;;;5012526;28;20038;-65
2021/08/30 07:27:56;;;;;;;8.18;2.28;;;;;;;;;;5012898;28;20037;-64
2021/08/30 07:31:01;;;;;;;14.10;2.75;;;;;;;;;;5012610;28;20042;-65
2021/08/30 07:34:05;;;;;;;11.55;2.60;;;;;;;;;;5012832;28;20041;-65
2021/08/30 07:37:10;;;;;;;11.80;2.38;;;;;;;;;;5012561;28;20042;-64
2021/08/30 07:40:14;;;;;;;13.50;2.83;;;;;;;;;;5012528;28;20050;-64
2021/08/30 07:43:19;;;;;;;12.43;3.15;;;;;;;;;;5012448;28;20034;-66
2021/08/30 07:46:23;;;;;;;11.93;2.75;;;;;;;;;;5012401;28;20053;-62
2021/08/30 07:49:31;;;;;;;12.85;2.60;;;;;;;;;;5012600;28;20041;-64
2021/08/30 07:52:35;;;;;;;9.68;2.70;;;;;;;;;;5012340;28;20040;-63
2021/08/30 07:55:39;;;;;;;15.05;2.75;;;;;;;;;;5012437;28;20477;-63
2021/08/30 07:58:43;;;;;;;10.00;2.78;;;;;;;;;;5012308;28;20060;-62
2021/08/30 08:01:48;;;;;;;8.52;3.35;;;;;;;;;;5011918;28;20038;-64
2021/08/30 08:04:52;;;;;;;15.75;3.55;;;;;;;;;;5011945;28;20033;-66
2021/08/30 08:07:58;;;;;;;12.45;3.35;;;;;;;;;;5011996;28;20052;-66
2021/08/30 08:11:01;;;;;;;14.10;3.58;;;;;;;;;;5011746;28;20038;-63
2021/08/30 08:14:06;;;;;;;11.60;3.63;;;;;;;;;;5012034;28;20512;-62
2021/08/30 08:17:10;;;;;;;13.13;3.28;;;;;;;;;;5012041;28;20048;-64
2021/08/30 08:20:15;;;;;;;11.23;3.85;;;;;;;;;;5012061;28;20076;-63
2021/08/30 08:23:19;;;;;;;12.93;3.60;;;;;;;;;;5011826;28;20053;-64
2021/08/30 08:26:23;;;;;;;13.55;3.15;;;;;;;;;;4999997;28;20053;-64
2021/08/30 08:29:27;;;;;;;22.45;3.95;;;;;;;;;;5011705;28;20509;-64
2021/08/30 08:32:33;;;;;;;10.55;3.08;;;;;;;;;;5012061;28;20042;-64
2021/08/30 08:35:40;;;;;;;9.00;2.72;;;;;;;;;;4999754;28;20053;-64
2021/08/30 08:38:45;;;;;;;9.75;2.70;;;;;;;;;;5011728;28;20045;-64
2021/08/30 08:41:49;;;;;;;13.18;2.90;;;;;;;;;;5011682;28;20050;-63
2021/08/30 08:44:54;;;;;;;10.65;3.75;;;;;;;;;;5011689;28;20049;-65
2021/08/30 08:47:58;;;;;;;11.50;3.10;;;;;;;;;;5011559;28;20393;-64
2021/08/30 08:51:02;;;;;;;20.10;4.03;;;;;;;;;;5011282;28;20038;-65
2021/08/30 08:54:07;;;;;;;14.93;3.88;;;;;;;;;;5011218;28;20042;-66
2021/08/30 08:57:12;;;;;;;8.43;2.60;;;;;;;;;;5011387;28;20038;-63
2021/08/30 09:00:16;;;;;;;9.27;2.72;;;;;;;;;;5011140;28;20493;-63
2021/08/30 09:03:20;;;;;;;9.65;3.08;;;;;;;;;;5011323;28;20046;-62
2021/08/30 09:06:29;;;;;;;8.43;3.47;;;;;;;;;;4999574;28;20034;-63
2021/08/30 09:09:33;;;;;;;8.13;4.45;;;;;;;;;;5011056;28;20041;-64
2021/08/30 09:12:39;;;;;;;15.00;4.28;;;;;;;;;;5011083;28;20042;-64
2021/08/30 09:15:43;;;;;;;15.35;4.85;;;;;;;;;;5011217;28;20046;-64
2021/08/30 09:18:48;;;;;;;13.82;4.95;;;;;;;;;;5010965;28;20045;-64
2021/08/30 09:21:52;;;;;;;10.63;4.82;;;;;;;;;;5010678;28;20082;-66
2021/08/30 09:25:07;;;;;;;13.88;4.22;;;;;;;;;;5010763;28;20401;-67
2021/08/30 09:28:11;;;;;;;9.88;4.88;;;;;;;;;;5011032;28;20034;-65
2021/08/30 09:31:15;;;;;;;11.90;3.88;;;;;;;;;;5010953;28;20367;-65
2021/08/30 09:34:19;;;;;;;14.02;3.35;;;;;;;;;;4998734;28;20038;-64
2021/08/30 09:37:25;;;;;;;8.38;3.50;;;;;;;;;;5010620;28;20399;-64
2021/08/30 09:40:30;;;;;;;6.28;3.47;;;;;;;;;;5010848;28;20046;-64
2021/08/30 09:43:34;;;;;;;8.85;3.80;;;;;;;;;;5011181;28;20478;-64
2021/08/30 09:46:38;;;;;;;16.15;3.78;;;;;;;;;;5010926;28;20038;-64
2021/08/30 09:49:42;;;;;;;11.30;4.22;;;;;;;;;;5010760;28;20049;-64
2021/08/30 09:52:46;;;;;;;11.18;3.75;;;;;;;;;;5010287;28;20042;-64
2021/08/30 09:55:51;;;;;;;6.15;2.80;;;;;;;;;;5010941;28;20506;-64
2021/08/30 09:58:56;;;;;;;8.60;2.50;;;;;;;;;;4998883;28;20498;-65
2021/08/30 10:02:01;;;;;;;8.40;2.22;;;;;;;;;;4998468;28;20054;-64
2021/08/30 10:05:06;;;;;;;8.55;2.72;;;;;;;;;;5000454;28;20038;-65
2021/08/30 10:08:11;;;;;;;9.18;2.85;;;;;;;;;;5014054;28;20387;-65
2021/08/30 10:11:15;;;;;;;7.20;2.50;;;;;;;;;;5014290;28;20042;-65
2021/08/30 10:14:22;;;;;;;7.28;2.60;;;;;;;;;;5014408;28;20042;-65
2021/08/30 10:17:26;;;;;;;3.00;2.13;;;;;;;;;;5014158;28;20038;-65
2021/08/30 10:20:35;;;;;;;12.25;3.17;;;;;;;;;;5014123;28;20497;-65
2021/08/30 10:23:48;;;;;;;10.93;2.70;;;;;;;;;;5002962;28;20061;-64
2021/08/30 10:27:00;;;;;;;6.05;2.58;;;;;;;;;;5013904;28;20046;-64
2021/08/30 10:30:12;;;;;;;6.72;2.30;;;;;;;;;;5014018;28;20049;-65
2021/08/30 10:33:16;;;;;;;4.70;2.40;;;;;;;;;;5013939;28;20042;-65
2021/08/30 10:36:21;;;;;;;5.45;2.30;;;;;;;;;;5014163;28;20045;-65
2021/08/30 10:39:37;;;;;;;5.45;2.35;;;;;;;;;;5013928;28;20038;-65
2021/08/30 10:42:41;;;;;;;5.10;2.20;;;;;;;;;;5013604;28;20038;-65
2021/08/30 10:45:56;;;;;;;8.65;4.15;;;;;;;;;;5013787;28;20038;-65
2021/08/30 10:49:07;;;;;;;7.68;2.35;;;;;;;;;;5013654;28;20481;-64
2021/08/30 10:52:15;;;;;;;9.75;2.83;;;;;;;;;;5013854;28;20042;-65
2021/08/30 10:55:20;;;;;;;4.53;1.95;;;;;;;;;;5014043;28;20030;-65
2021/08/30 10:58:26;;;;;;;9.25;2.28;;;;;;;;;;5013961;28;20034;-65
2021/08/30 11:01:30;;;;;;;4.38;1.80;;;;;;;;;;5013838;28;20049;-65
2021/08/30 11:04:36;;;;;;;6.65;1.90;;;;;;;;;;5013593;28;20038;-65
2021/08/30 11:07:41;;;;;;;2.58;1.63;;;;;;;;;;5013302;28;20486;-64
2021/08/30 11:10:45;;;;;;;6.93;2.47;;;;;;;;;;5013382;28;20042;-65
2021/08/30 11:14:09;;;;;;;8.35;2.42;;;;;;;;;;5013106;28;20042;-64
2021/08/30 11:17:13;;;;;;;13.18;2.83;;;;;;;;;;5012284;28;20478;-65
2021/08/30 11:20:18;;;;;;;5.03;2.33;;;;;;;;;;5013730;28;20045;-65
2021/08/30 11:23:26;;;;;;;4.30;2.50;;;;;;;;;;5012983;28;20042;-65
2021/08/30 11:26:30;;;;;;;10.18;2.90;;;;;;;;;;5000872;28;20034;-65
2021/08/30 11:29:40;;;;;;;7.15;2.40;;;;;;;;;;5012921;28;20050;-66
2021/08/30 11:32:51;;;;;;;7.38;2.17;;;;;;;;;;5012736;28;20497;-64
2021/08/30 11:36:00;;;;;;;11.57;3.43;;;;;;;;;;5012837;28;20387;-65
2021/08/30 11:39:04;;;;;;;4.55;2.58;;;;;;;;;;5012695;28;20054;-65
2021/08/30 11:42:11;;;;;;;5.05;2.63;;;;;;;;;;5012559;28;20050;-64
2021/08/30 11:45:16;;;;;;;9.90;2.75;;;;;;;;;;5012673;28;20367;-65
2021/08/30 11:48:21;;;;;;;6.25;2.63;;;;;;;;;;5012442;28;20079;-66
2021/08/30 11:51:26;;;;;;;4.43;2.25;;;;;;;;;;5012512;28;20489;-66
2021/08/30 11:54:35;;;;;;;5.97;2.80;;;;;;;;;;5012656;28;20046;-66
2021/08/30 11:57:41;;;;;;;10.65;2.30;;;;;;;;;;5012361;28;20034;-66
2021/08/30 12:00:45;;;;;;;8.38;2.47;;;;;;;;;;5012210;28;20053;-66
2021/08/30 12:03:50;;;;;;;3.13;2.00;;;;;;;;;;5000329;28;20034;-66
2021/08/30 12:06:55;;;;;;;4.10;2.45;;;;;;;;;;5012200;28;20038;-66
2021/08/30 12:10:05;;;;;;;4.40;2.35;;;;;;;;;;5011989;28;20489;-67
2021/08/30 12:13:31;;;;;;;8.13;2.60;;;;;;;;;;5011915;28;20037;-66
2021/08/30 12:16:35;;;;;;;4.75;2.00;;;;;;;;;;5011769;28;20034;-67
2021/08/30 12:19:46;;;;;;;10.38;2.88;;;;;;;;;;5011960;28;20042;-65
2021/08/30 12:22:54;;;;;;;7.32;2.58;;;;;;;;;;5011820;28;20067;-66
2021/08/30 12:25:59;;;;;;;4.05;2.38;;;;;;;;;;5011876;28;20038;-66
2021/08/30 12:29:03;;;;;;;4.57;2.10;;;;;;;;;;5011563;28;20045;-66
2021/08/30 12:32:08;;;;;;;5.53;2.25;;;;;;;;;;5011274;28;20038;-66
2021/08/30 12:35:20;;;;;;;4.28;1.90;;;;;;;;;;5011603;28;20497;-65
2021/08/30 12:38:27;;;;;;;5.05;2.17;;;;;;;;;;4999575;28;20038;-66
2021/08/30 12:41:31;;;;;;;8.02;2.30;;;;;;;;;;5011465;28;20050;-68
2021/08/30 12:44:35;;;;;;;8.07;2.60;;;;;;;;;;5011542;28;20042;-68
2021/08/30 12:47:40;;;;;;;5.97;1.90;;;;;;;;;;5011380;28;20379;-66
2021/08/30 12:50:44;;;;;;;9.45;3.33;;;;;;;;;;5011600;28;20045;-65
2021/08/30 12:53:54;;;;;;;11.07;2.30;;;;;;;;;;5011251;28;20029;-65
2021/08/30 12:56:59;;;;;;;8.18;2.28;;;;;;;;;;5011059;28;20052;-67
2021/08/30 13:00:10;;;;;;;7.60;2.75;;;;;;;;;;5010824;28;20232;-67
2021/08/30 13:03:15;;;;;;;4.20;2.03;;;;;;;;;;4999075;28;20046;-66
2021/08/30 13:06:19;;;;;;;9.57;2.15;;;;;;;;;;5011638;28;20041;-64
2021/08/30 13:09:23;;;;;;;5.10;2.17;;;;;;;;;;5011282;28;20105;-73
2021/08/30 13:12:27;;;;;;;7.75;2.13;;;;;;;;;;5011202;28;20038;-74
2021/08/30 13:15:32;;;;;;;9.13;2.25;;;;;;;;;;5010966;28;20038;-77
2021/08/30 13:18:36;;;;;;;10.68;2.38;;;;;;;;;;5010920;28;20045;-73
2021/08/30 13:21:40;;;;;;;9.27;2.13;;;;;;;;;;5010859;28;20057;-75
2021/08/30 13:24:45;;;;;;;5.78;2.10;;;;;;;;;;5011313;28;20351;-73
2021/08/30 13:27:51;;;;;;;9.45;2.00;;;;;;;;;;5011547;28;20042;-70
2021/08/30 13:30:55;;;;;;;9.52;2.50;;;;;;;;;;5010754;28;20034;-65
2021/08/30 13:33:59;;;;;;;5.10;1.80;;;;;;;;;;5011117;28;20422;-67
2021/08/30 13:37:04;;;;;;;7.10;1.83;;;;;;;;;;5010802;28;20042;-74
2021/08/30 13:40:09;;;;;;;7.45;1.95;;;;;;;;;;5013086;28;20034;-67
2021/08/30 13:43:14;;;;;;;4.32;2.17;;;;;;;;;;5014694;28;20050;-65
2021/08/30 13:46:18;;;;;;;9.73;2.33;;;;;;;;;;5014887;28;20033;-72
2021/08/30 13:49:22;;;;;;;3.70;1.85;;;;;;;;;;5002633;28;20046;-73
2021/08/30 13:52:30;;;;;;;4.97;2.13;;;;;;;;;;5014558;28;20038;-77
2021/08/30 13:55:34;;;;;;;4.07;2.00;;;;;;;;;;5002429;28;20046;-65
2021/08/30 13:58:39;;;;;;;4.32;1.85;;;;;;;;;;5014543;28;20038;-68
2021/08/30 14:01:43;;;;;;;8.40;2.10;;;;;;;;;;5014281;28;20486;-67
2021/08/30 14:04:47;;;;;;;5.90;1.60;;;;;;;;;;5014723;28;20466;-64
2021/08/30 14:07:52;;;;;;;5.45;1.92;;;;;;;;;;5014515;28;20046;-66
2021/08/30 14:10:56;;;;;;;8.85;1.70;;;;;;;;;;5014449;28;20042;-72
2021/08/30 14:14:01;;;;;;;9.15;1.67;;;;;;;;;;5014126;28;20046;-73
2021/08/30 14:17:05;;;;;;;8.07;1.52;;;;;;;;;;5014008;28;20046;-69
2021/08/30 14:20:10;;;;;;;8.18;1.30;;;;;;;;;;5014195;28;20030;-72
2021/08/30 14:23:14;;;;;;;7.10;1.40;;;;;;;;;;5014187;28;20046;-66
2021/08/30 14:26:18;;;;;;;8.77;2.03;;;;;;;;;;5014087;28;20042;-66
2021/08/30 14:29:22;;;;;;;6.45;1.70;;;;;;;;;;5014096;28;20478;-65
2021/08/30 14:32:27;;;;;;;5.25;1.17;;;;;;;;;;5013845;28;20042;-65
2021/08/30 14:35:31;;;;;;;5.68;1.98;;;;;;;;;;5014025;28;20489;-63
2021/08/30 14:38:35;;;;;;;23.85;3.22;;;;;;;;;;5013741;28;20050;-63
2021/08/30 14:41:39;;;;;;;6.85;1.50;;;;;;;;;;5013746;28;20052;-63
2021/08/30 14:44:44;;;;;;;5.13;1.65;;;;;;;;;;5013641;28;20046;-65
2021/08/30 14:47:48;;;;;;;5.78;1.60;;;;;;;;;;5013856;28;20653;-63
2021/08/30 14:50:53;;;;;;;4.97;1.75;;;;;;;;;;5013434;28;20042;-63
2021/08/30 14:53:57;;;;;;;7.70;1.60;;;;;;;;;;5013636;28;20038;-63
2021/08/30 14:57:01;;;;;;;4.85;1.63;;;;;;;;;;5001250;28;20490;-63
2021/08/30 15:00:06;;;;;;;6.45;1.40;;;;;;;;;;5013403;28;20378;-63
2021/08/30 15:03:11;;;;;;;8.18;1.67;;;;;;;;;;5013186;28;20049;-63
2021/08/30 15:06:16;;;;;;;3.15;1.40;;;;;;;;;;5012952;28;20038;-64
2021/08/30 15:09:20;;;;;;;5.15;1.88;;;;;;;;;;5013632;28;20478;-64
2021/08/30 15:12:25;;;;;;;3.92;1.83;;;;;;;;;;5012306;28;20034;-63
2021/08/30 15:15:38;;;;;;;14.02;1.80;;;;;;;;;;5012787;28;20057;-64
2021/08/30 15:18:47;;;;;;;4.72;1.40;;;;;;;;;;5013062;28;20049;-64
2021/08/30 15:21:51;;;;;;;4.55;1.40;;;;;;;;;;5000636;28;20387;-62
2021/08/30 15:24:55;;;;;;;2.85;1.38;;;;;;;;;;5012964;28;20038;-63
2021/08/30 15:28:00;;;;;;;5.53;1.40;;;;;;;;;;5012990;28;20042;-63
2021/08/30 15:31:04;;;;;;;5.75;1.60;;;;;;;;;;5012826;28;20046;-63
2021/08/30 15:34:09;;;;;;;5.28;1.70;;;;;;;;;;5012776;28;20045;-65
2021/08/30 15:37:13;;;;;;;4.75;1.40;;;;;;;;;;5012645;28;20374;-66
2021/08/30 15:40:18;;;;;;;10.75;1.73;;;;;;;;;;5012587;28;20555;-63
2021/08/30 15:43:22;;;;;;;11.73;1.65;;;;;;;;;;5012424;28;20064;-63
2021/08/30 15:46:26;;;;;;;7.25;1.20;;;;;;;;;;5012595;28;20041;-63
2021/08/30 15:49:31;;;;;;;5.47;1.60;;;;;;;;;;5000470;28;20041;-66
2021/08/30 15:52:37;;;;;;;14.52;2.00;;;;;;;;;;5012556;28;20391;-63
2021/08/30 15:55:42;;;;;;;8.02;1.75;;;;;;;;;;5012280;28;20497;-65
2021/08/30 15:58:46;;;;;;;7.53;2.50;;;;;;;;;;5011772;28;20037;-64
2021/08/30 16:01:50;;;;;;;4.82;1.48;;;;;;;;;;5011124;28;20050;-66
2021/08/30 16:04:56;;;;;;;3.47;1.73;;;;;;;;;;5011166;28;20045;-65
2021/08/30 16:08:00;;;;;;;11.20;1.70;;;;;;;;;;5011962;28;20037;-66
2021/08/30 16:11:05;;;;;;;4.07;1.45;;;;;;;;;;5012484;28;20041;-66
2021/08/30 16:14:09;;;;;;;5.57;1.30;;;;;;;;;;5012098;28;20351;-65
2021/08/30 16:17:14;;;;;;;7.18;2.38;;;;;;;;;;5012159;28;20050;-65
2021/08/30 16:20:18;;;;;;;9.65;2.28;;;;;;;;;;5012432;28;20038;-65
2021/08/30 16:23:22;;;;;;;8.48;2.10;;;;;;;;;;5011859;28;20045;-65
2021/08/30 16:26:27;;;;;;;8.93;2.00;;;;;;;;;;5011672;28;20034;-66
2021/08/30 16:29:32;;;;;;;6.28;2.30;;;;;;;;;;5011915;28;20030;-65
2021/08/30 16:32:36;;;;;;;5.10;2.20;;;;;;;;;;5011896;28;20025;-63
2021/08/30 16:35:44;;;;;;;7.97;2.92;;;;;;;;;;5012051;28;20046;-64
2021/08/30 16:38:48;;;;;;;5.65;2.20;;;;;;;;;;5013785;28;20034;-65
2021/08/30 16:41:52;;;;;;;3.30;2.05;;;;;;;;;;5011442;28;20145;-62
2021/08/30 16:44:56;;;;;;;8.60;1.98;;;;;;;;;;5011303;28;20037;-62
2021/08/30 16:48:01;;;;;;;7.72;2.13;;;;;;;;;;5010968;28;20037;-62
2021/08/30 16:51:06;;;;;;;9.90;1.85;;;;;;;;;;5010513;28;20478;-62
2021/08/30 16:54:10;;;;;;;7.07;1.98;;;;;;;;;;5010142;28;20141;-63
2021/08/30 16:57:14;;;;;;;11.60;2.08;;;;;;;;;;5011204;28;20493;-63
2021/08/30 17:00:19;;;;;;;6.50;2.38;;;;;;;;;;5011087;28;20034;-63
2021/08/30 17:03:23;;;;;;;11.65;2.10;;;;;;;;;;5011162;28;20038;-63
2021/08/30 17:06:27;;;;;;;7.05;2.20;;;;;;;;;;5011025;28;20038;-63
2021/08/30 17:09:31;;;;;;;10.73;2.10;;;;;;;;;;5011419;28;20038;-63
2021/08/30 17:12:36;;;;;;;13.05;2.97;;;;;;;;;;5011132;28;20038;-63
2021/08/30 17:15:41;;;;;;;5.90;2.00;;;;;;;;;;5010417;28;20038;-62
2021/08/30 17:18:45;;;;;;;11.27;4.75;;;;;;;;;;4999103;28;20042;-62
2021/08/30 17:21:50;;;;;;;15.38;2.65;;;;;;;;;;5010851;28;20251;-65
2021/08/30 17:24:54;;;;;;;12.30;4.05;;;;;;;;;;5011174;28;20050;-65
2021/08/30 17:27:58;;;;;;;20.40;3.70;;;;;;;;;;5010648;28;20042;-65
2021/08/30 17:31:02;;;;;;;23.50;4.55;;;;;;;;;;5010631;28;20042;-65
2021/08/30 17:34:07;;;;;;;11.93;2.97;;;;;;;;;;5010543;28;20046;-65
2021/08/30 17:37:11;;;;;;;12.02;2.63;;;;;;;;;;5010708;28;20042;-65
2021/08/30 17:40:16;;;;;;;11.57;3.50;;;;;;;;;;5010815;28;20054;-65
2021/08/30 17:43:20;;;;;;;15.38;3.42;;;;;;;;;;5010847;28;20049;-65
2021/08/30 17:46:25;;;;;;;10.35;3.38;;;;;;;;;;5010896;28;20034;-65
2021/08/30 17:49:31;;;;;;;10.57;3.35;;;;;;;;;;5010871;28;20038;-66
2021/08/30 17:52:36;;;;;;;10.70;3.42;;;;;;;;;;5010560;28;20034;-65
2021/08/30 17:55:40;;;;;;;7.63;2.55;;;;;;;;;;4998661;28;20037;-66
2021/08/30 17:58:44;;;;;;;13.20;3.10;;;;;;;;;;5010542;28;20041;-65
2021/08/30 18:01:49;;;;;;;29.38;3.85;;;;;;;;;;5010422;28;20042;-65
2021/08/30 18:04:53;;;;;;;11.18;2.88;;;;;;;;;;5010713;28;20042;-67
2021/08/30 18:07:57;;;;;;;8.40;2.65;;;;;;;;;;5010553;28;20049;-65
2021/08/30 18:11:02;;;;;;;16.67;2.75;;;;;;;;;;5010879;28;20030;-65
2021/08/30 18:14:06;;;;;;;7.10;2.63;;;;;;;;;;5010599;28;20051;-65
2021/08/30 18:17:10;;;;;;;9.93;2.75;;;;;;;;;;5010571;28;20046;-65
2021/08/30 18:20:16;;;;;;;6.18;2.25;;;;;;;;;;5010525;28;20038;-66
2021/08/30 18:23:21;;;;;;;6.32;2.45;;;;;;;;;;5010598;28;20053;-65
2021/08/30 18:26:26;;;;;;;6.53;2.35;;;;;;;;;;5012732;28;20496;-65
2021/08/30 18:29:30;;;;;;;5.72;2.83;;;;;;;;;;5013771;28;20045;-65